Time,TemperatureF,DewpointF,PressureIn,WindDirection,WindDirectionDegrees,WindSpeedMPH,WindSpeedGustMPH,Humidity,HourlyPrecipIn,Conditions,Clouds,dailyrainin,SoftwareType,DateUTC
2014-01-01 00:12:00,23.0,8.0,30.27,NW,321,5.0,10.0,53,0.00,,,0.00,,2014-01-01 05:12:00,
2014-01-01 00:22:00,23.0,8.0,30.27,West,271,2.0,9.0,53,0.00,,,0.00,,2014-01-01 05:22:00,
2014-01-01 00:43:00,23.0,8.0,30.28,West,271,2.0,9.0,52,0.00,,,0.00,,2014-01-01 05:43:00,
2014-01-01 00:52:00,22.0,7.0,30.28,WNW,282,1.0,7.0,51,0.00,,,0.00,,2014-01-01 05:52:00,
2014-01-01 01:12:00,22.0,8.0,30.28,WNW,299,0.0,2.0,54,0.00,,,0.00,,2014-01-01 06:12:00,
2014-01-01 01:22:00,22.0,8.0,30.29,WNW,283,1.0,5.0,54,0.00,,,0.00,,2014-01-01 06:22:00,
2014-01-01 01:42:00,22.0,8.0,30.29,WNW,285,3.0,7.0,54,0.00,,,0.00,,2014-01-01 06:42:00,
2014-01-01 01:52:00,21.0,7.0,30.30,West,272,2.0,6.0,55,0.00,,,0.00,,2014-01-01 06:52:00,
2014-01-01 02:12:00,21.0,7.0,30.30,WSW,251,0.0,5.0,55,0.00,,,0.00,,2014-01-01 07:12:00,
2014-01-01 02:22:00,21.0,8.0,30.31,West,266,1.0,3.0,56,0.00,,,0.00,,2014-01-01 07:22:00,
2014-01-01 02:42:00,20.0,7.0,30.32,SSW,198,0.0,2.0,57,0.00,,,0.00,,2014-01-01 07:42:00,
2014-01-01 02:52:00,20.0,8.0,30.32,WNW,301,0.0,2.0,58,0.00,,,0.00,,2014-01-01 07:52:00,
2014-01-01 03:12:00,20.0,8.0,30.33,West,276,1.0,4.0,59,0.00,,,0.00,,2014-01-01 08:12:00,
2014-01-01 03:22:00,20.0,8.0,30.34,West,278,0.0,3.0,60,0.00,,,0.00,,2014-01-01 08:22:00,
2014-01-01 03:42:00,20.0,8.0,30.34,West,275,0.0,2.0,60,0.00,,,0.00,,2014-01-01 08:42:00,
2014-01-01 03:52:00,20.0,9.0,30.33,WSW,257,0.0,1.0,61,0.00,,,0.00,,2014-01-01 08:52:00,
2014-01-01 04:11:00,20.0,9.0,30.34,West,275,0.0,1.0,62,0.00,,,0.00,,2014-01-01 09:11:00,
2014-01-01 04:22:00,20.0,9.0,30.34,SW,224,0.0,1.0,63,0.00,,,0.00,,2014-01-01 09:22:00,
2014-01-01 04:43:00,20.0,11.0,30.34,SE,131,0.0,1.0,66,0.00,,,0.00,,2014-01-01 09:43:00,
2014-01-01 04:53:00,19.0,10.0,30.34,SE,127,0.0,1.0,67,0.00,,,0.00,,2014-01-01 09:53:00,
2014-01-01 05:12:00,19.0,11.0,30.34,SE,127,0.0,0.0,69,0.00,,,0.00,,2014-01-01 10:12:00,
2014-01-01 05:23:00,19.0,11.0,30.35,SE,129,0.0,1.0,70,0.00,,,0.00,,2014-01-01 10:23:00,
2014-01-01 05:43:00,19.0,11.0,30.35,ESE,120,0.0,1.0,71,0.00,,,0.00,,2014-01-01 10:43:00,
2014-01-01 05:53:00,17.0,10.0,30.36,ESE,112,0.0,1.0,75,0.00,,,0.00,,2014-01-01 10:53:00,
2014-01-01 06:12:00,18.0,11.0,30.36,ESE,107,0.0,1.0,74,0.00,,,0.00,,2014-01-01 11:12:00,
2014-01-01 06:22:00,18.0,12.0,30.36,ESE,107,0.0,1.0,77,0.00,,,0.00,,2014-01-01 11:22:00,
2014-01-01 06:42:00,19.0,12.0,30.37,ESE,107,0.0,0.0,75,0.00,,,0.00,,2014-01-01 11:42:00,
2014-01-01 06:53:00,17.0,11.0,30.37,ESE,106,0.0,0.0,76,0.00,,,0.00,,2014-01-01 11:53:00,
2014-01-01 07:12:00,16.0,11.0,30.37,ESE,106,0.0,0.0,79,0.00,,,0.00,,2014-01-01 12:12:00,
2014-01-01 07:22:00,15.0,10.0,30.37,ESE,105,0.0,0.0,81,0.00,,,0.00,,2014-01-01 12:22:00,
2014-01-01 07:42:00,16.0,11.0,30.38,ESE,105,0.0,0.0,81,0.00,,,0.00,,2014-01-01 12:42:00,
2014-01-01 07:52:00,16.0,12.0,30.39,ESE,105,0.0,0.0,84,0.00,,,0.00,,2014-01-01 12:52:00,
2014-01-01 08:12:00,15.0,11.0,30.39,ESE,105,0.0,0.0,84,0.00,,,0.00,,2014-01-01 13:12:00,
2014-01-01 08:22:00,16.0,13.0,30.39,ESE,103,0.0,0.0,86,0.00,,,0.00,,2014-01-01 13:22:00,
2014-01-01 08:42:00,17.0,13.0,30.40,NE,55,0.0,1.0,84,0.00,,,0.00,,2014-01-01 13:42:00,
2014-01-01 08:52:00,19.0,14.0,30.40,NE,54,0.0,0.0,80,0.00,,,0.00,,2014-01-01 13:52:00,
2014-01-01 09:12:00,19.0,14.0,30.40,NE,55,0.0,1.0,79,0.00,,,0.00,,2014-01-01 14:12:00,
2014-01-01 09:22:00,21.0,15.0,30.41,WNW,292,0.0,1.0,76,0.00,,,0.00,,2014-01-01 14:22:00,
2014-01-01 09:42:00,21.0,13.0,30.40,West,276,0.0,1.0,70,0.00,,,0.00,,2014-01-01 14:42:00,
2014-01-01 09:52:00,23.0,14.0,30.40,North,1,0.0,1.0,67,0.00,,,0.00,,2014-01-01 14:52:00,
2014-01-01 10:11:00,24.0,14.0,30.41,NNE,21,0.0,2.0,66,0.00,,,0.00,,2014-01-01 15:11:00,
2014-01-01 10:22:00,25.0,15.0,30.41,NW,321,2.0,5.0,64,0.00,,,0.00,,2014-01-01 15:22:00,
2014-01-01 10:43:00,26.0,15.0,30.41,NW,314,2.0,7.0,62,0.00,,,0.00,,2014-01-01 15:43:00,
2014-01-01 10:53:00,26.0,15.0,30.40,NNE,16,1.0,6.0,62,0.00,,,0.00,,2014-01-01 15:53:00,
2014-01-01 11:13:00,27.0,14.0,30.40,NW,313,5.0,10.0,57,0.00,,,0.00,,2014-01-01 16:13:00,
2014-01-01 11:23:00,27.0,14.0,30.40,WNW,298,4.0,9.0,58,0.00,,,0.00,,2014-01-01 16:23:00,
2014-01-01 11:43:00,28.0,15.0,30.39,West,268,3.0,7.0,57,0.00,,,0.00,,2014-01-01 16:43:00,
2014-01-01 11:53:00,28.0,14.0,30.38,North,353,3.0,9.0,55,0.00,,,0.00,,2014-01-01 16:53:00,
2014-01-01 12:12:00,29.0,14.0,30.37,WNW,300,0.0,7.0,54,0.00,,,0.00,,2014-01-01 17:12:00,
2014-01-01 12:22:00,30.0,15.0,30.36,WSW,247,0.0,5.0,54,0.00,,,0.00,,2014-01-01 17:22:00,
2014-01-01 12:43:00,29.0,14.0,30.36,WNW,282,1.0,8.0,54,0.00,,,0.00,,2014-01-01 17:43:00,
2014-01-01 12:52:00,30.0,15.0,30.35,West,278,4.0,8.0,54,0.00,,,0.00,,2014-01-01 17:52:00,
2014-01-01 13:12:00,30.0,16.0,30.35,SW,228,2.0,8.0,55,0.00,,,0.00,,2014-01-01 18:12:00,
2014-01-01 13:22:00,30.0,16.0,30.35,WNW,282,4.0,9.0,56,0.00,,,0.00,,2014-01-01 18:22:00,
2014-01-01 13:42:00,30.0,16.0,30.34,NW,311,3.0,5.0,56,0.00,,,0.00,,2014-01-01 18:42:00,
2014-01-01 13:53:00,30.0,16.0,30.34,West,272,1.0,5.0,56,0.00,,,0.00,,2014-01-01 18:53:00,
2014-01-01 14:12:00,31.0,17.0,30.34,WNW,283,1.0,4.0,56,0.00,,,0.00,,2014-01-01 19:12:00,
2014-01-01 14:22:00,30.0,17.0,30.34,WSW,257,1.0,7.0,57,0.00,,,0.00,,2014-01-01 19:22:00,
2014-01-01 14:42:00,30.0,17.0,30.34,SW,219,3.0,8.0,57,0.00,,,0.00,,2014-01-01 19:42:00,
2014-01-01 14:52:00,31.0,18.0,30.34,West,273,1.0,7.0,58,0.00,,,0.00,,2014-01-01 19:52:00,
2014-01-01 15:12:00,31.0,18.0,30.33,West,277,1.0,7.0,59,0.00,,,0.00,,2014-01-01 20:12:00,
2014-01-01 15:22:00,31.0,18.0,30.33,NNW,335,0.0,6.0,59,0.00,,,0.00,,2014-01-01 20:22:00,
2014-01-01 15:42:00,31.0,18.0,30.33,West,280,1.0,5.0,59,0.00,,,0.00,,2014-01-01 20:42:00,
2014-01-01 15:53:00,31.0,19.0,30.33,WNW,290,1.0,4.0,61,0.00,,,0.00,,2014-01-01 20:53:00,
2014-01-01 16:11:00,31.0,18.0,30.33,West,277,2.0,4.0,59,0.00,,,0.00,,2014-01-01 21:11:00,
2014-01-01 16:22:00,31.0,19.0,30.33,SW,236,0.0,3.0,60,0.00,,,0.00,,2014-01-01 21:22:00,
2014-01-01 16:43:00,30.0,18.0,30.33,West,273,0.0,3.0,60,0.00,,,0.00,,2014-01-01 21:43:00,
2014-01-01 16:53:00,31.0,19.0,30.32,SE,129,0.0,2.0,60,0.00,,,0.00,,2014-01-01 21:53:00,
2014-01-01 17:13:00,30.0,18.0,30.32,West,266,0.0,1.0,60,0.00,,,0.00,,2014-01-01 22:13:00,
2014-01-01 17:23:00,30.0,18.0,30.32,WSW,245,0.0,1.0,61,0.00,,,0.00,,2014-01-01 22:23:00,
2014-01-01 17:42:00,30.0,18.0,30.32,WSW,241,0.0,2.0,60,0.00,,,0.00,,2014-01-01 22:42:00,
2014-01-01 17:53:00,31.0,19.0,30.32,SW,221,0.0,1.0,60,0.00,,,0.00,,2014-01-01 22:53:00,
2014-01-01 18:12:00,30.0,19.0,30.32,SW,219,0.0,0.0,62,0.00,,,0.00,,2014-01-01 23:12:00,
2014-01-01 18:22:00,30.0,19.0,30.32,SW,219,0.0,1.0,64,0.00,,,0.00,,2014-01-01 23:22:00,
2014-01-01 18:42:00,30.0,19.0,30.33,SW,219,0.0,0.0,64,0.00,,,0.00,,2014-01-01 23:42:00,
2014-01-01 18:52:00,29.0,18.0,30.33,SW,219,0.0,0.0,64,0.00,,,0.00,,2014-01-01 23:52:00,
2014-01-01 19:11:00,30.0,20.0,30.33,ESE,111,0.0,1.0,66,0.00,,,0.00,,2014-01-02 00:11:00,
2014-01-01 19:22:00,29.0,19.0,30.33,ESE,107,0.0,1.0,67,0.00,,,0.00,,2014-01-02 00:22:00,
2014-01-01 19:42:00,29.0,19.0,30.33,ESE,106,0.0,1.0,67,0.00,,,0.00,,2014-01-02 00:42:00,
2014-01-01 19:52:00,29.0,20.0,30.33,ESE,104,0.0,1.0,69,0.00,,,0.00,,2014-01-02 00:52:00,
2014-01-01 20:11:00,28.0,19.0,30.33,NNE,25,0.0,2.0,68,0.00,,,0.00,,2014-01-02 01:11:00,
2014-01-01 20:22:00,28.0,18.0,30.32,NNE,13,1.0,3.0,67,0.00,,,0.00,,2014-01-02 01:22:00,
2014-01-01 20:42:00,28.0,18.0,30.32,NE,35,2.0,3.0,65,0.00,,,0.00,,2014-01-02 01:42:00,
2014-01-01 20:52:00,28.0,17.0,30.32,NE,49,1.0,3.0,64,0.00,,,0.00,,2014-01-02 01:52:00,
2014-01-01 21:12:00,28.0,17.0,30.32,NE,41,1.0,4.0,64,0.00,,,0.00,,2014-01-02 02:12:00,
2014-01-01 21:22:00,28.0,18.0,30.31,NE,42,0.0,2.0,65,0.00,,,0.00,,2014-01-02 02:22:00,
2014-01-01 22:12:00,28.0,18.0,30.29,North,354,2.0,7.0,67,0.00,,,0.00,,2014-01-02 03:12:00,
2014-01-01 22:22:00,28.0,19.0,30.29,NNE,22,0.0,3.0,68,0.00,,,0.00,,2014-01-02 03:22:00,
2014-01-01 22:43:00,29.0,20.0,30.30,NE,44,0.0,2.0,69,0.00,,,0.00,,2014-01-02 03:43:00,
2014-01-01 22:53:00,28.0,20.0,30.29,North,6,0.0,4.0,70,0.00,,,0.00,,2014-01-02 03:53:00,
2014-01-01 23:13:00,29.0,20.0,30.29,NNE,23,0.0,2.0,70,0.00,,,0.00,,2014-01-02 04:13:00,
2014-01-01 23:23:00,28.0,20.0,30.29,North,2,0.0,2.0,71,0.00,,,0.00,,2014-01-02 04:23:00,
2014-01-01 23:43:00,28.0,20.0,30.28,East,84,0.0,3.0,71,0.00,,,0.00,,2014-01-02 04:43:00,
2014-01-01 23:53:00,28.0,20.0,30.28,NNE,28,2.0,7.0,72,0.00,,,0.00,,2014-01-02 04:53:00,